sensor_id;sensor_type;location;lat;lon;timestamp;pressure;altitude;pressure_sealevel;temperature;humidity
21879;BME280;27908;42.708;23.278;2023-06-22T00:01:04;49960.25;;;-136.69;89.64
21879;BME280;27908;42.708;23.278;2023-06-22T00:03:30;49938.59;;;-136.69;90.15
21879;BME280;27908;42.708;23.278;2023-06-22T00:05:56;49958.28;;;-136.69;90.11
21879;BME280;27908;42.708;23.278;2023-06-22T00:08:21;49938.59;;;-136.69;90.26
21879;BME280;27908;42.708;23.278;2023-06-22T00:10:47;49905.13;;;-136.69;90.60
21879;BME280;27908;42.708;23.278;2023-06-22T00:13:13;49942.53;;;-136.69;91.01
21879;BME280;27908;42.708;23.278;2023-06-22T00:15:40;49918.91;;;-136.69;91.74
21879;BME280;27908;42.708;23.278;2023-06-22T00:18:07;49924.81;;;-136.69;91.64
21879;BME280;27908;42.708;23.278;2023-06-22T00:20:33;49924.81;;;-136.69;92.00
21879;BME280;27908;42.708;23.278;2023-06-22T00:23:03;49922.84;;;-136.69;92.46
21879;BME280;27908;42.708;23.278;2023-06-22T00:25:33;49946.47;;;-136.69;92.20
21879;BME280;27908;42.708;23.278;2023-06-22T00:27:58;49930.72;;;-136.69;92.27
21879;BME280;27908;42.708;23.278;2023-06-22T00:30:24;49936.63;;;-136.69;92.27
21879;BME280;27908;42.708;23.278;2023-06-22T00:32:49;49930.72;;;-136.69;91.62
21879;BME280;27908;42.708;23.278;2023-06-22T00:35:15;49932.69;;;-136.69;91.62
21879;BME280;27908;42.708;23.278;2023-06-22T00:37:40;49918.91;;;-136.69;91.50
21879;BME280;27908;42.708;23.278;2023-06-22T00:40:10;49897.25;;;-136.69;92.03
21879;BME280;27908;42.708;23.278;2023-06-22T00:42:40;49914.97;;;-136.69;91.78
21879;BME280;27908;42.708;23.278;2023-06-22T00:45:06;49920.88;;;-136.69;91.65
21879;BME280;27908;42.708;23.278;2023-06-22T00:47:34;49932.69;;;-136.69;92.59
21879;BME280;27908;42.708;23.278;2023-06-22T00:49:59;49895.28;;;-136.69;93.18
21879;BME280;27908;42.708;23.278;2023-06-22T00:52:26;49946.47;;;-136.69;92.88
21879;BME280;27908;42.708;23.278;2023-06-22T00:54:56;49877.56;;;-136.69;92.95
21879;BME280;27908;42.708;23.278;2023-06-22T00:57:24;49913.00;;;-136.69;93.19
21879;BME280;27908;42.708;23.278;2023-06-22T00:59:53;49922.84;;;-136.69;92.86
21879;BME280;27908;42.708;23.278;2023-06-22T01:02:19;49989.78;;;-136.69;93.42
21879;BME280;27908;42.708;23.278;2023-06-22T01:04:45;49934.66;;;-136.69;93.17
21879;BME280;27908;42.708;23.278;2023-06-22T01:07:31;49901.19;;;-136.69;93.82
21879;BME280;27908;42.708;23.278;2023-06-22T01:10:14;49914.97;;;-136.69;94.40
21879;BME280;27908;42.708;23.278;2023-06-22T01:13:04;49948.44;;;-136.69;95.34
21879;BME280;27908;42.708;23.278;2023-06-22T01:15:33;49879.53;;;-136.69;94.96
21879;BME280;27908;42.708;23.278;2023-06-22T01:18:03;49938.59;;;-136.69;94.77
21879;BME280;27908;42.708;23.278;2023-06-22T01:20:30;49891.34;;;-136.69;94.62
21879;BME280;27908;42.708;23.278;2023-06-22T01:23:20;49914.97;;;-136.69;94.81
21879;BME280;27908;42.708;23.278;2023-06-22T01:26:17;49911.03;;;-136.69;94.64
21879;BME280;27908;42.708;23.278;2023-06-22T01:28:46;49934.66;;;-136.69;94.06
21879;BME280;27908;42.708;23.278;2023-06-22T01:31:18;50040.97;;;-136.69;93.98
21879;BME280;27908;42.708;23.278;2023-06-22T01:33:48;49924.81;;;-136.69;93.93
21879;BME280;27908;42.708;23.278;2023-06-22T01:36:14;49885.44;;;-136.69;94.28
21879;BME280;27908;42.708;23.278;2023-06-22T01:38:44;49891.34;;;-136.69;93.69
21879;BME280;27908;42.708;23.278;2023-06-22T01:41:11;49970.09;;;-136.69;94.02
21879;BME280;27908;42.708;23.278;2023-06-22T01:43:37;49901.19;;;-136.69;94.55
21879;BME280;27908;42.708;23.278;2023-06-22T01:46:04;49905.13;;;-136.69;94.93
21879;BME280;27908;42.708;23.278;2023-06-22T01:48:30;49911.03;;;-136.69;94.59
21879;BME280;27908;42.708;23.278;2023-06-22T01:50:56;49895.28;;;-136.69;94.52
21879;BME280;27908;42.708;23.278;2023-06-22T01:53:22;49885.44;;;-136.69;94.98
21879;BME280;27908;42.708;23.278;2023-06-22T01:55:48;50027.19;;;-136.69;94.45
21879;BME280;27908;42.708;23.278;2023-06-22T01:58:14;49895.28;;;-136.69;94.44
21879;BME280;27908;42.708;23.278;2023-06-22T02:00:42;49891.34;;;-136.69;95.07
21879;BME280;27908;42.708;23.278;2023-06-22T02:03:15;49903.16;;;-136.69;96.57
21879;BME280;27908;42.708;23.278;2023-06-22T02:05:48;49875.59;;;-136.69;97.56
21879;BME280;27908;42.708;23.278;2023-06-22T02:08:41;49869.69;;;-136.69;97.85
21879;BME280;27908;42.708;23.278;2023-06-22T02:11:10;49899.22;;;-136.69;98.40
21879;BME280;27908;42.708;23.278;2023-06-22T02:13:37;49867.72;;;-136.69;98.17
21879;BME280;27908;42.708;23.278;2023-06-22T02:16:09;49891.34;;;-136.69;98.15
21879;BME280;27908;42.708;23.278;2023-06-22T02:18:35;49918.91;;;-136.69;97.80
21879;BME280;27908;42.708;23.278;2023-06-22T02:21:01;49899.22;;;-136.69;97.32
21879;BME280;27908;42.708;23.278;2023-06-22T02:23:27;49907.09;;;-136.69;96.91
21879;BME280;27908;42.708;23.278;2023-06-22T02:25:52;49916.94;;;-136.69;96.93
21879;BME280;27908;42.708;23.278;2023-06-22T02:28:17;49889.38;;;-136.69;96.69
21879;BME280;27908;42.708;23.278;2023-06-22T02:30:43;49907.09;;;-136.69;96.14
21879;BME280;27908;42.708;23.278;2023-06-22T02:33:08;49916.94;;;-136.69;96.41
21879;BME280;27908;42.708;23.278;2023-06-22T02:35:34;49916.94;;;-136.69;95.74
21879;BME280;27908;42.708;23.278;2023-06-22T02:38:02;49883.47;;;-136.69;95.79
21879;BME280;27908;42.708;23.278;2023-06-22T02:40:31;49938.59;;;-136.69;95.22
21879;BME280;27908;42.708;23.278;2023-06-22T02:42:58;49920.88;;;-136.69;94.81
21879;BME280;27908;42.708;23.278;2023-06-22T02:45:27;49881.50;;;-136.69;94.79
21879;BME280;27908;42.708;23.278;2023-06-22T02:47:52;49920.88;;;-136.69;94.70
21879;BME280;27908;42.708;23.278;2023-06-22T02:50:18;49887.41;;;-136.69;94.42
21879;BME280;27908;42.708;23.278;2023-06-22T02:52:43;49909.06;;;-136.69;94.63
21879;BME280;27908;42.708;23.278;2023-06-22T02:55:08;49920.88;;;-136.69;94.42
21879;BME280;27908;42.708;23.278;2023-06-22T02:57:34;49889.38;;;-136.69;94.58
21879;BME280;27908;42.708;23.278;2023-06-22T02:59:59;49899.22;;;-136.69;94.30
21879;BME280;27908;42.708;23.278;2023-06-22T03:02:25;49911.03;;;-136.69;93.68
21879;BME280;27908;42.708;23.278;2023-06-22T03:04:52;49924.81;;;-136.69;93.36
21879;BME280;27908;42.708;23.278;2023-06-22T03:07:19;49893.31;;;-136.69;93.69
21879;BME280;27908;42.708;23.278;2023-06-22T03:09:44;49903.16;;;-136.69;93.58
21879;BME280;27908;42.708;23.278;2023-06-22T03:12:10;49922.84;;;-136.69;93.51
21879;BME280;27908;42.708;23.278;2023-06-22T03:14:36;49920.88;;;-136.69;93.48
21879;BME280;27908;42.708;23.278;2023-06-22T03:17:01;49914.97;;;-136.69;93.01
21879;BME280;27908;42.708;23.278;2023-06-22T03:19:29;49913.00;;;-136.69;93.02
21879;BME280;27908;42.708;23.278;2023-06-22T03:21:59;49920.88;;;-136.69;93.69
21879;BME280;27908;42.708;23.278;2023-06-22T03:24:25;49909.06;;;-136.69;93.85
21879;BME280;27908;42.708;23.278;2023-06-22T03:26:50;49903.16;;;-136.69;95.00
21879;BME280;27908;42.708;23.278;2023-06-22T03:29:16;49907.09;;;-136.69;94.82
21879;BME280;27908;42.708;23.278;2023-06-22T03:31:41;49901.19;;;-136.69;94.40
21879;BME280;27908;42.708;23.278;2023-06-22T03:34:07;49914.97;;;-136.69;94.48
21879;BME280;27908;42.708;23.278;2023-06-22T03:36:32;49924.81;;;-136.69;94.05
21879;BME280;27908;42.708;23.278;2023-06-22T03:38:58;49909.06;;;-136.69;93.85
21879;BME280;27908;42.708;23.278;2023-06-22T03:41:23;49918.91;;;-136.69;93.43
21879;BME280;27908;42.708;23.278;2023-06-22T03:43:49;49952.38;;;-136.69;92.98
21879;BME280;27908;42.708;23.278;2023-06-22T03:46:14;49918.91;;;-136.69;92.72
21879;BME280;27908;42.708;23.278;2023-06-22T03:48:39;49928.75;;;-136.69;92.19
21879;BME280;27908;42.708;23.278;2023-06-22T03:51:05;49946.47;;;-136.69;91.86
21879;BME280;27908;42.708;23.278;2023-06-22T03:53:31;49932.69;;;-136.69;91.23
21879;BME280;27908;42.708;23.278;2023-06-22T03:55:56;49932.69;;;-136.69;91.35
21879;BME280;27908;42.708;23.278;2023-06-22T03:58:22;49934.66;;;-136.69;91.45
21879;BME280;27908;42.708;23.278;2023-06-22T04:00:49;49966.16;;;-136.69;91.38
21879;BME280;27908;42.708;23.278;2023-06-22T04:03:15;49909.06;;;-136.69;90.84
21879;BME280;27908;42.708;23.278;2023-06-22T04:05:41;49958.28;;;-136.69;90.86
21879;BME280;27908;42.708;23.278;2023-06-22T04:08:07;49905.13;;;-136.69;90.70
21879;BME280;27908;42.708;23.278;2023-06-22T04:10:32;49948.44;;;-136.69;90.64
21879;BME280;27908;42.708;23.278;2023-06-22T04:12:58;49962.22;;;-136.69;91.07
21879;BME280;27908;42.708;23.278;2023-06-22T04:15:23;49985.84;;;-136.69;91.29
21879;BME280;27908;42.708;23.278;2023-06-22T04:17:49;49962.22;;;-136.69;91.11
21879;BME280;27908;42.708;23.278;2023-06-22T04:20:14;49985.84;;;-136.69;90.85
21879;BME280;27908;42.708;23.278;2023-06-22T04:22:40;49976.00;;;-136.69;90.80
21879;BME280;27908;42.708;23.278;2023-06-22T04:25:06;49979.94;;;-136.69;90.17
21879;BME280;27908;42.708;23.278;2023-06-22T04:27:33;49964.19;;;-136.69;89.88
21879;BME280;27908;42.708;23.278;2023-06-22T04:30:08;49997.66;;;-136.69;89.46
21879;BME280;27908;42.708;23.278;2023-06-22T04:32:34;49979.94;;;-136.69;87.51
21879;BME280;27908;42.708;23.278;2023-06-22T04:35:02;49979.94;;;-136.69;86.32
21879;BME280;27908;42.708;23.278;2023-06-22T04:37:29;50019.31;;;-136.69;85.74
21879;BME280;27908;42.708;23.278;2023-06-22T04:39:55;50005.53;;;-136.69;83.93
21879;BME280;27908;42.708;23.278;2023-06-22T04:42:20;50042.94;;;-136.69;84.59
21879;BME280;27908;42.708;23.278;2023-06-22T04:44:46;50044.91;;;-136.69;84.13
21879;BME280;27908;42.708;23.278;2023-06-22T04:47:11;50027.19;;;-136.69;83.15
21879;BME280;27908;42.708;23.278;2023-06-22T04:49:37;50064.59;;;-136.69;82.06
21879;BME280;27908;42.708;23.278;2023-06-22T04:52:07;50033.09;;;-136.69;81.20
21879;BME280;27908;42.708;23.278;2023-06-22T04:54:33;50086.25;;;-136.69;81.24
21879;BME280;27908;42.708;23.278;2023-06-22T04:57:03;50092.16;;;-136.69;79.37
21879;BME280;27908;42.708;23.278;2023-06-22T04:59:31;50046.88;;;-136.69;77.61
21879;BME280;27908;42.708;23.278;2023-06-22T05:01:57;50103.97;;;-136.69;76.58
21879;BME280;27908;42.708;23.278;2023-06-22T05:04:23;50103.97;;;-136.69;76.33
21879;BME280;27908;42.708;23.278;2023-06-22T05:06:50;50102.00;;;-136.69;76.65
21879;BME280;27908;42.708;23.278;2023-06-22T05:09:16;50113.84;;;-136.69;76.41
21879;BME280;27908;42.708;23.278;2023-06-22T05:11:42;50090.19;;;-136.69;73.55
21879;BME280;27908;42.708;23.278;2023-06-22T05:14:08;50109.88;;;-136.69;72.94
21879;BME280;27908;42.708;23.278;2023-06-22T05:16:33;50159.13;;;-136.69;71.75
21879;BME280;27908;42.708;23.278;2023-06-22T05:18:59;50143.38;;;-136.69;69.86
21879;BME280;27908;42.708;23.278;2023-06-22T05:21:26;50137.47;;;-136.69;69.82
21879;BME280;27908;42.708;23.278;2023-06-22T05:23:53;50151.25;;;-136.69;68.49
21879;BME280;27908;42.708;23.278;2023-06-22T05:26:19;50180.78;;;-136.69;67.90
21879;BME280;27908;42.708;23.278;2023-06-22T05:28:45;50198.50;;;-136.69;67.81
21879;BME280;27908;42.708;23.278;2023-06-22T05:31:15;50198.50;;;-136.69;67.87
21879;BME280;27908;42.708;23.278;2023-06-22T05:33:41;50167.00;;;-136.69;66.75
21879;BME280;27908;42.708;23.278;2023-06-22T05:36:07;50200.47;;;-136.69;66.15
21879;BME280;27908;42.708;23.278;2023-06-22T05:38:33;50208.34;;;-136.69;66.37
21879;BME280;27908;42.708;23.278;2023-06-22T05:40:58;50192.59;;;-136.69;65.89
21879;BME280;27908;42.708;23.278;2023-06-22T05:43:23;50216.22;;;-136.69;65.88
21879;BME280;27908;42.708;23.278;2023-06-22T05:45:49;50182.75;;;-136.69;65.90
21879;BME280;27908;42.708;23.278;2023-06-22T05:48:14;50214.25;;;-136.69;65.88
21879;BME280;27908;42.708;23.278;2023-06-22T05:50:40;50230.00;;;-136.69;66.96
21879;BME280;27908;42.708;23.278;2023-06-22T05:53:05;50249.69;;;-136.69;66.54
21879;BME280;27908;42.708;23.278;2023-06-22T05:55:32;50257.56;;;-136.69;61.80
21879;BME280;27908;42.708;23.278;2023-06-22T05:57:58;50269.38;;;-136.69;61.12
21879;BME280;27908;42.708;23.278;2023-06-22T06:00:23;50291.06;;;-136.69;62.28
21879;BME280;27908;42.708;23.278;2023-06-22T06:02:49;50259.53;;;-136.69;62.39
21879;BME280;27908;42.708;23.278;2023-06-22T06:05:14;50287.09;;;-136.69;61.32
21879;BME280;27908;42.708;23.278;2023-06-22T06:07:41;50298.94;;;-136.69;59.80
21879;BME280;27908;42.708;23.278;2023-06-22T06:10:07;50332.41;;;-136.69;60.86
21879;BME280;27908;42.708;23.278;2023-06-22T06:12:33;50352.09;;;-136.69;60.80
21879;BME280;27908;42.708;23.278;2023-06-22T06:14:58;50352.09;;;-136.69;58.62
21879;BME280;27908;42.708;23.278;2023-06-22T06:17:24;50332.41;;;-136.69;60.22
21879;BME280;27908;42.708;23.278;2023-06-22T06:19:49;50352.09;;;-136.69;59.57
21879;BME280;27908;42.708;23.278;2023-06-22T06:22:14;50356.03;;;-136.69;58.06
21879;BME280;27908;42.708;23.278;2023-06-22T06:24:40;50365.88;;;-136.69;57.75
21879;BME280;27908;42.708;23.278;2023-06-22T06:27:05;50387.53;;;-136.69;55.51
21879;BME280;27908;42.708;23.278;2023-06-22T06:29:34;50464.34;;;-136.69;56.46
21879;BME280;27908;42.708;23.278;2023-06-22T06:31:59;50428.88;;;-136.69;55.21
21879;BME280;27908;42.708;23.278;2023-06-22T06:34:25;50454.50;;;-136.69;52.13
21879;BME280;27908;42.708;23.278;2023-06-22T06:36:50;50472.22;;;-136.69;54.44
21879;BME280;27908;42.708;23.278;2023-06-22T06:39:16;50501.75;;;-136.69;53.75
21879;BME280;27908;42.708;23.278;2023-06-22T06:41:41;50570.69;;;-136.69;53.86
21879;BME280;27908;42.708;23.278;2023-06-22T06:44:07;50543.09;;;-136.69;50.52
21879;BME280;27908;42.708;23.278;2023-06-22T06:46:33;50560.81;;;-136.69;51.41
21879;BME280;27908;42.708;23.278;2023-06-22T06:48:58;50554.91;;;-136.69;51.07
21879;BME280;27908;42.708;23.278;2023-06-22T06:51:23;50584.47;;;-136.69;49.10
21879;BME280;27908;42.708;23.278;2023-06-22T06:53:49;50588.41;;;-136.69;47.58
21879;BME280;27908;42.708;23.278;2023-06-22T06:56:15;50629.75;;;-136.69;49.15
21879;BME280;27908;42.708;23.278;2023-06-22T06:58:41;50635.66;;;-136.69;49.33
21879;BME280;27908;42.708;23.278;2023-06-22T07:01:11;50694.75;;;-136.69;47.88
21879;BME280;27908;42.708;23.278;2023-06-22T07:03:36;50649.44;;;-136.69;46.40
21879;BME280;27908;42.708;23.278;2023-06-22T07:06:02;50690.81;;;-136.69;47.43
21879;BME280;27908;42.708;23.278;2023-06-22T07:08:27;50704.59;;;-136.69;47.95
21879;BME280;27908;42.708;23.278;2023-06-22T07:10:53;50728.22;;;-136.69;48.20
21879;BME280;27908;42.708;23.278;2023-06-22T07:13:19;50755.78;;;-136.69;46.29
21879;BME280;27908;42.708;23.278;2023-06-22T07:15:44;50690.81;;;-136.69;46.90
21879;BME280;27908;42.708;23.278;2023-06-22T07:18:10;50742.00;;;-136.69;46.98
21879;BME280;27908;42.708;23.278;2023-06-22T07:20:35;50694.75;;;-136.69;45.86
21879;BME280;27908;42.708;23.278;2023-06-22T07:23:01;50765.63;;;-136.69;46.87
21879;BME280;27908;42.708;23.278;2023-06-22T07:25:26;50734.13;;;-136.69;46.57
21879;BME280;27908;42.708;23.278;2023-06-22T07:30:24;50686.88;;;-136.69;47.99
21879;BME280;27908;42.708;23.278;2023-06-22T07:32:50;50722.31;;;-136.69;47.43
21879;BME280;27908;42.708;23.278;2023-06-22T07:35:15;50738.06;;;-136.69;46.19
21879;BME280;27908;42.708;23.278;2023-06-22T07:37:42;50775.47;;;-136.69;45.91
21879;BME280;27908;42.708;23.278;2023-06-22T07:40:08;50793.22;;;-136.69;46.80
21879;BME280;27908;42.708;23.278;2023-06-22T07:42:33;50787.31;;;-136.69;43.89
21879;BME280;27908;42.708;23.278;2023-06-22T07:44:59;50812.91;;;-136.69;44.03
21879;BME280;27908;42.708;23.278;2023-06-22T07:47:25;50791.25;;;-136.69;44.96
21879;BME280;27908;42.708;23.278;2023-06-22T07:49:53;50789.28;;;-136.69;45.48
21879;BME280;27908;42.708;23.278;2023-06-22T07:52:20;50761.69;;;-136.69;44.59
21879;BME280;27908;42.708;23.278;2023-06-22T07:54:46;50763.66;;;-136.69;45.28
21879;BME280;27908;42.708;23.278;2023-06-22T07:57:30;50838.50;;;-136.69;44.02
21879;BME280;27908;42.708;23.278;2023-06-22T08:00:00;50807.00;;;-136.69;44.69
21879;BME280;27908;42.708;23.278;2023-06-22T08:02:26;50818.81;;;-136.69;46.19
21879;BME280;27908;42.708;23.278;2023-06-22T08:04:51;50818.81;;;-136.69;46.67
21879;BME280;27908;42.708;23.278;2023-06-22T08:07:17;50771.53;;;-136.69;47.45
21879;BME280;27908;42.708;23.278;2023-06-22T08:09:47;50824.72;;;-136.69;46.87
21879;BME280;27908;42.708;23.278;2023-06-22T08:12:14;50860.16;;;-136.69;46.61
21879;BME280;27908;42.708;23.278;2023-06-22T08:14:41;50868.03;;;-136.69;45.53
21879;BME280;27908;42.708;23.278;2023-06-22T08:17:07;50856.22;;;-136.69;45.09
21879;BME280;27908;42.708;23.278;2023-06-22T08:19:32;50846.38;;;-136.69;45.73
21879;BME280;27908;42.708;23.278;2023-06-22T08:21:58;50862.13;;;-136.69;45.79
21879;BME280;27908;42.708;23.278;2023-06-22T08:24:23;50893.66;;;-136.69;45.52
21879;BME280;27908;42.708;23.278;2023-06-22T08:26:51;50895.63;;;-136.69;44.71
21879;BME280;27908;42.708;23.278;2023-06-22T08:29:17;50907.44;;;-136.69;45.60
21879;BME280;27908;42.708;23.278;2023-06-22T08:31:42;50858.19;;;-136.69;47.00
21879;BME280;27908;42.708;23.278;2023-06-22T08:34:08;50862.13;;;-136.69;45.71
21879;BME280;27908;42.708;23.278;2023-06-22T08:36:33;50858.19;;;-136.69;44.60
21879;BME280;27908;42.708;23.278;2023-06-22T08:39:06;50822.75;;;-136.69;45.14
21879;BME280;27908;42.708;23.278;2023-06-22T08:41:32;50883.81;;;-136.69;44.91
21879;BME280;27908;42.708;23.278;2023-06-22T08:43:57;50856.22;;;-136.69;45.42
21879;BME280;27908;42.708;23.278;2023-06-22T08:46:23;50871.97;;;-136.69;44.96
21879;BME280;27908;42.708;23.278;2023-06-22T08:48:56;50885.78;;;-136.69;42.75
21879;BME280;27908;42.708;23.278;2023-06-22T08:51:22;50899.56;;;-136.69;45.68
21879;BME280;27908;42.708;23.278;2023-06-22T08:53:47;50907.44;;;-136.69;44.94
21879;BME280;27908;42.708;23.278;2023-06-22T08:56:13;50931.06;;;-136.69;42.72
21879;BME280;27908;42.708;23.278;2023-06-22T08:58:38;50968.50;;;-136.69;43.89
21879;BME280;27908;42.708;23.278;2023-06-22T09:01:04;50978.34;;;-136.69;44.47
21879;BME280;27908;42.708;23.278;2023-06-22T09:03:29;51011.81;;;-136.69;43.70
21879;BME280;27908;42.708;23.278;2023-06-22T09:05:55;50988.19;;;-136.69;44.33
21879;BME280;27908;42.708;23.278;2023-06-22T09:08:21;50990.16;;;-136.69;42.15
21879;BME280;27908;42.708;23.278;2023-06-22T09:10:47;51025.59;;;-136.69;42.70
21879;BME280;27908;42.708;23.278;2023-06-22T09:13:12;51003.94;;;-136.69;42.44
21879;BME280;27908;42.708;23.278;2023-06-22T09:15:38;51029.53;;;-136.69;43.16
21879;BME280;27908;42.708;23.278;2023-06-22T09:18:03;51029.53;;;-136.69;42.95
21879;BME280;27908;42.708;23.278;2023-06-22T09:20:29;51055.16;;;-136.69;42.75
21879;BME280;27908;42.708;23.278;2023-06-22T09:22:54;51088.63;;;-136.69;41.65
21879;BME280;27908;42.708;23.278;2023-06-22T09:25:20;51082.72;;;-136.69;42.93
21879;BME280;27908;42.708;23.278;2023-06-22T09:27:46;51151.66;;;-136.69;42.85
21879;BME280;27908;42.708;23.278;2023-06-22T09:30:12;51169.38;;;-136.69;42.10
21879;BME280;27908;42.708;23.278;2023-06-22T09:32:37;51141.81;;;-136.69;39.75
21879;BME280;27908;42.708;23.278;2023-06-22T09:35:04;51210.75;;;-136.69;39.61
21879;BME280;27908;42.708;23.278;2023-06-22T09:37:31;51155.59;;;-136.69;39.35
21879;BME280;27908;42.708;23.278;2023-06-22T09:39:56;51177.25;;;-136.69;37.74
21879;BME280;27908;42.708;23.278;2023-06-22T09:42:21;51159.53;;;-136.69;38.79
21879;BME280;27908;42.708;23.278;2023-06-22T09:44:47;51173.31;;;-136.69;37.97
21879;BME280;27908;42.708;23.278;2023-06-22T09:47:12;51163.47;;;-136.69;36.63
21879;BME280;27908;42.708;23.278;2023-06-22T09:49:38;51153.63;;;-136.69;34.98
21879;BME280;27908;42.708;23.278;2023-06-22T09:52:03;51130.00;;;-136.69;35.69
21879;BME280;27908;42.708;23.278;2023-06-22T09:54:29;51137.88;;;-136.69;38.82
21879;BME280;27908;42.708;23.278;2023-06-22T09:56:54;51147.72;;;-136.69;35.66
21879;BME280;27908;42.708;23.278;2023-06-22T09:59:20;51194.97;;;-136.69;37.51
21879;BME280;27908;42.708;23.278;2023-06-22T10:01:45;51230.44;;;-136.69;36.32
21879;BME280;27908;42.708;23.278;2023-06-22T10:04:10;51198.94;;;-136.69;35.31
21879;BME280;27908;42.708;23.278;2023-06-22T10:06:36;51185.13;;;-136.69;35.97
21879;BME280;27908;42.708;23.278;2023-06-22T10:09:01;51194.97;;;-136.69;35.12
21879;BME280;27908;42.708;23.278;2023-06-22T10:11:27;51210.75;;;-136.69;35.38
21879;BME280;27908;42.708;23.278;2023-06-22T10:13:55;51218.63;;;-136.69;37.05
21879;BME280;27908;42.708;23.278;2023-06-22T10:16:21;51238.31;;;-136.69;35.27
21879;BME280;27908;42.708;23.278;2023-06-22T10:18:46;51273.78;;;-136.69;36.05
21879;BME280;27908;42.708;23.278;2023-06-22T10:21:11;51299.38;;;-136.69;38.08
21879;BME280;27908;42.708;23.278;2023-06-22T10:23:37;51334.81;;;-136.69;35.03
21879;BME280;27908;42.708;23.278;2023-06-22T10:26:02;51356.50;;;-136.69;34.89
21879;BME280;27908;42.708;23.278;2023-06-22T10:28:28;51423.47;;;-136.69;36.20
21879;BME280;27908;42.708;23.278;2023-06-22T10:30:53;51358.47;;;-136.69;33.32
21879;BME280;27908;42.708;23.278;2023-06-22T10:33:19;51364.38;;;-136.69;33.92
21879;BME280;27908;42.708;23.278;2023-06-22T10:35:44;51376.19;;;-136.69;32.53
21879;BME280;27908;42.708;23.278;2023-06-22T10:38:10;51293.47;;;-136.69;32.92
21879;BME280;27908;42.708;23.278;2023-06-22T10:40:35;51336.78;;;-136.69;31.96
21879;BME280;27908;42.708;23.278;2023-06-22T10:43:00;51360.44;;;-136.69;34.39
21879;BME280;27908;42.708;23.278;2023-06-22T10:45:26;51350.59;;;-136.69;31.78
21879;BME280;27908;42.708;23.278;2023-06-22T10:47:52;51297.41;;;-136.69;33.39
21879;BME280;27908;42.708;23.278;2023-06-22T10:50:18;51360.44;;;-136.69;32.83
21879;BME280;27908;42.708;23.278;2023-06-22T10:52:43;51321.03;;;-136.69;32.94
21879;BME280;27908;42.708;23.278;2023-06-22T10:55:09;51354.53;;;-136.69;33.05
21879;BME280;27908;42.708;23.278;2023-06-22T10:57:35;51401.78;;;-136.69;32.86
21879;BME280;27908;42.708;23.278;2023-06-22T11:00:02;51388.00;;;-136.69;31.70
21879;BME280;27908;42.708;23.278;2023-06-22T11:02:31;51409.69;;;-136.69;31.12
21879;BME280;27908;42.708;23.278;2023-06-22T11:04:56;51401.78;;;-136.69;32.00
21879;BME280;27908;42.708;23.278;2023-06-22T11:07:25;51478.63;;;-136.69;32.26
21879;BME280;27908;42.708;23.278;2023-06-22T11:09:52;51502.25;;;-136.69;33.15
21879;BME280;27908;42.708;23.278;2023-06-22T11:12:18;51584.97;;;-136.69;33.16
21879;BME280;27908;42.708;23.278;2023-06-22T11:14:43;51634.22;;;-136.69;32.29
21879;BME280;27908;42.708;23.278;2023-06-22T11:17:08;51671.66;;;-136.69;29.53
21879;BME280;27908;42.708;23.278;2023-06-22T11:19:34;51612.56;;;-136.69;31.21
21879;BME280;27908;42.708;23.278;2023-06-22T11:21:59;51648.00;;;-136.69;30.02
21879;BME280;27908;42.708;23.278;2023-06-22T11:24:25;51732.72;;;-136.69;29.69
21879;BME280;27908;42.708;23.278;2023-06-22T11:26:51;51667.72;;;-136.69;28.49
21879;BME280;27908;42.708;23.278;2023-06-22T11:29:16;51716.97;;;-136.69;28.10
21879;BME280;27908;42.708;23.278;2023-06-22T11:31:41;51657.88;;;-136.69;29.18
21879;BME280;27908;42.708;23.278;2023-06-22T11:34:08;51673.63;;;-136.69;27.75
21879;BME280;27908;42.708;23.278;2023-06-22T11:36:34;51636.19;;;-136.69;29.53
21879;BME280;27908;42.708;23.278;2023-06-22T11:39:00;51531.78;;;-136.69;28.94
21879;BME280;27908;42.708;23.278;2023-06-22T11:41:26;51512.09;;;-136.69;30.88
21879;BME280;27908;42.708;23.278;2023-06-22T11:43:51;51506.19;;;-136.69;31.31
21879;BME280;27908;42.708;23.278;2023-06-22T11:46:17;51484.53;;;-136.69;35.79
21879;BME280;27908;42.708;23.278;2023-06-22T11:48:42;51421.50;;;-136.69;37.54
21879;BME280;27908;42.708;23.278;2023-06-22T11:51:08;51277.72;;;-136.69;41.51
21879;BME280;27908;42.708;23.278;2023-06-22T11:53:34;51232.41;;;-136.69;38.78
21879;BME280;27908;42.708;23.278;2023-06-22T11:56:00;51236.34;;;-136.69;41.75
21879;BME280;27908;42.708;23.278;2023-06-22T11:58:26;51206.81;;;-136.69;40.77
21879;BME280;27908;42.708;23.278;2023-06-22T12:00:51;51202.88;;;-136.69;41.43
21879;BME280;27908;42.708;23.278;2023-06-22T12:03:18;51153.63;;;-136.69;42.72
21879;BME280;27908;42.708;23.278;2023-06-22T12:05:43;51098.47;;;-136.69;45.40
21879;BME280;27908;42.708;23.278;2023-06-22T12:08:09;51126.06;;;-136.69;43.80
21879;BME280;27908;42.708;23.278;2023-06-22T12:10:34;51049.25;;;-136.69;43.16
21879;BME280;27908;42.708;23.278;2023-06-22T12:12:59;51088.63;;;-136.69;43.31
21879;BME280;27908;42.708;23.278;2023-06-22T12:15:26;51047.28;;;-136.69;46.06
21879;BME280;27908;42.708;23.278;2023-06-22T12:17:52;51080.75;;;-136.69;50.92
21879;BME280;27908;42.708;23.278;2023-06-22T12:20:18;50982.28;;;-136.69;57.52
21879;BME280;27908;42.708;23.278;2023-06-22T12:22:43;50814.88;;;-136.69;63.22
21879;BME280;27908;42.708;23.278;2023-06-22T12:25:09;50619.91;;;-136.69;66.01
21879;BME280;27908;42.708;23.278;2023-06-22T12:27:35;50519.47;;;-136.69;74.30
21879;BME280;27908;42.708;23.278;2023-06-22T12:30:01;50452.53;;;-136.69;76.84